Time;durP1;ratioP1;P1;durP2;ratioP2;P2;SDS_P1;SDS_P2;PMS_P1;PMS_P2;Temp;Humidity;BMP_temperature;BMP_pressure;BME280_temperature;BME280_humidity;BME280_pressure;Samples;Min_cycle;Max_cycle;Signal;HPM_P1;HPM_P2
2021/08/14 00:03:22;;;;;;;24.75;13.80;;;;;;;18.00;69.90;100134.01;255594;1100;117361;-65
2021/08/14 00:08:25;;;;;;;14.47;13.07;;;;;;;18.00;70.31;100131.31;255158;1104;118093;-66
2021/08/14 00:13:28;;;;;;;13.30;11.20;;;;;;;18.02;70.40;100121.86;255017;1104;117339;-67
2021/08/14 00:18:31;;;;;;;14.68;12.15;;;;;;;18.08;70.61;100128.02;253960;1104;117213;-67
2021/08/14 00:23:34;;;;;;;20.73;13.60;;;;;;;18.09;70.58;100135.04;256857;1104;117726;-66
2021/08/14 00:28:37;;;;;;;11.80;10.70;;;;;;;18.11;70.60;100127.48;256988;1104;117694;-67
2021/08/14 00:33:40;;;;;;;12.30;10.53;;;;;;;18.10;70.49;100137.47;257035;1104;118923;-67
2021/08/14 00:38:43;;;;;;;17.90;11.98;;;;;;;18.11;70.85;100127.48;257042;1104;117529;-67
2021/08/14 00:43:48;;;;;;;13.90;12.60;;;;;;;18.08;70.64;100122.63;257005;1101;116569;-67
2021/08/14 00:48:51;;;;;;;15.00;11.85;;;;;;;18.09;70.92;100126.95;256993;1104;116435;-67
2021/08/14 00:53:54;;;;;;;12.55;11.25;;;;;;;18.10;70.85;100118.58;256453;1104;116756;-67
2021/08/14 00:58:59;;;;;;;13.20;10.95;;;;;;;18.14;71.27;100126.94;255486;1104;116749;-67
2021/08/14 01:04:03;;;;;;;13.65;12.33;;;;;;;18.18;71.14;100117.21;256779;1105;117263;-67
2021/08/14 01:09:06;;;;;;;13.10;11.90;;;;;;;18.16;71.40;100106.69;254412;1104;116618;-67
2021/08/14 01:14:08;;;;;;;15.30;12.58;;;;;;;18.20;71.37;100108.84;255904;1104;117464;-67
2021/08/14 01:19:11;;;;;;;16.53;13.05;;;;;;;18.24;71.41;100101.81;255474;1105;117044;-67
2021/08/14 01:24:15;;;;;;;17.55;13.78;;;;;;;18.30;71.82;100103.41;255723;1104;117401;-66
2021/08/14 01:29:19;;;;;;;26.95;13.63;;;;;;;18.36;71.68;100108.48;254770;1099;116387;-67
2021/08/14 01:34:23;;;;;;;17.05;13.85;;;;;;;18.40;71.82;100106.05;255784;1104;116484;-67
2021/08/14 01:39:26;;;;;;;17.83;13.20;;;;;;;18.41;71.71;100094.97;255487;1104;116655;-67
2021/08/14 01:44:31;;;;;;;16.03;12.88;;;;;;;18.34;71.34;100094.49;254912;1104;116747;-67
2021/08/14 01:49:35;;;;;;;23.98;13.40;;;;;;;18.24;71.49;100088.33;254879;1104;116792;-67
2021/08/14 01:54:39;;;;;;;16.23;14.50;;;;;;;18.23;71.75;100090.22;256772;1104;116995;-67
2021/08/14 01:59:43;;;;;;;16.33;14.48;;;;;;;18.26;71.96;100094.25;254695;1104;117045;-66
2021/08/14 02:04:47;;;;;;;15.75;14.10;;;;;;;18.28;71.99;100090.20;254548;1104;116556;-67
2021/08/14 02:09:50;;;;;;;17.95;13.75;;;;;;;18.29;72.06;100083.72;253902;1104;115970;-66
2021/08/14 02:14:54;;;;;;;13.65;11.80;;;;;;;18.25;71.78;100084.54;256351;1104;115117;-66
2021/08/14 02:19:57;;;;;;;17.85;13.83;;;;;;;18.08;71.53;100074.07;254047;1099;116016;-66
2021/08/14 02:25:02;;;;;;;13.93;12.43;;;;;;;17.95;72.18;100063.89;255888;1104;116930;-66
2021/08/14 02:30:08;;;;;;;15.08;13.63;;;;;;;17.94;72.34;100057.69;255981;1104;116971;-68
2021/08/14 02:35:11;;;;;;;15.93;14.05;;;;;;;17.99;72.60;100060.37;257272;1105;116716;-67
2021/08/14 02:40:14;;;;;;;20.05;15.65;;;;;;;18.07;72.74;100056.27;257280;1104;117088;-67
2021/08/14 02:45:18;;;;;;;18.08;14.63;;;;;;;18.16;72.52;100065.41;257257;1104;116841;-67
2021/08/14 02:50:21;;;;;;;19.70;15.95;;;;;;;18.16;72.43;100074.31;257268;1104;116377;-66
2021/08/14 02:55:25;;;;;;;16.98;15.28;;;;;;;18.09;72.24;100086.48;256660;1104;117545;-66
2021/08/14 03:00:29;;;;;;;16.90;14.58;;;;;;;18.03;72.29;100079.52;257098;1104;118196;-66
2021/08/14 03:05:32;;;;;;;18.35;16.03;;;;;;;17.97;72.50;100067.13;256992;1104;115545;-66
2021/08/14 03:10:40;;;;;;;17.80;14.58;;;;;;;17.97;72.66;100070.63;256900;1104;116311;-66
2021/08/14 03:15:43;;;;;;;22.83;16.03;;;;;;;17.97;72.71;100067.13;255370;1104;116041;-66
2021/08/14 03:20:46;;;;;;;16.18;14.58;;;;;;;17.98;73.08;100071.43;255827;1104;115981;-67
2021/08/14 03:25:50;;;;;;;16.25;14.63;;;;;;;18.07;73.11;100075.16;254557;1104;115798;-66
2021/08/14 03:30:55;;;;;;;19.70;15.08;;;;;;;18.11;73.17;100076.22;255011;1104;115827;-66
2021/08/14 03:35:59;;;;;;;27.65;14.30;;;;;;;18.06;72.78;100077.05;254539;1100;118264;-67
2021/08/14 03:41:02;;;;;;;17.68;15.90;;;;;;;18.03;72.92;100085.72;256278;1104;115781;-67
2021/08/14 03:46:06;;;;;;;16.78;14.80;;;;;;;17.99;72.53;100090.04;255393;1104;115881;-66
2021/08/14 03:51:09;;;;;;;16.65;14.90;;;;;;;17.95;72.52;100096.25;254360;1104;115994;-66
2021/08/14 03:56:12;;;;;;;16.80;15.08;;;;;;;17.90;72.83;100090.88;256069;1104;115415;-66
2021/08/14 04:01:16;;;;;;;15.35;13.90;;;;;;;17.94;72.96;100081.15;254423;1104;115812;-66
2021/08/14 04:06:20;;;;;;;21.95;14.93;;;;;;;17.97;72.80;100072.52;253961;1104;116252;-67
2021/08/14 04:11:23;;;;;;;15.18;13.65;;;;;;;17.97;72.58;100083.30;253892;1104;116014;-67
2021/08/14 04:16:27;;;;;;;19.15;15.40;;;;;;;17.97;72.70;100086.00;255283;1104;115611;-67
2021/08/14 04:21:29;;;;;;;19.43;14.18;;;;;;;18.13;73.50;100084.84;255002;1104;116216;-67
2021/08/14 04:26:33;;;;;;;15.48;13.88;;;;;;;18.29;73.21;100091.81;257089;1104;115474;-68
2021/08/14 04:31:36;;;;;;;19.15;14.13;;;;;;;18.51;72.76;100094.13;257150;1104;116268;-67
2021/08/14 04:36:40;;;;;;;17.43;13.83;;;;;;;18.74;72.69;100092.66;257206;1104;116677;-67
2021/08/14 04:41:45;;;;;;;17.40;15.55;;;;;;;18.92;72.54;100088.52;257321;1104;116537;-67
2021/08/14 04:46:48;;;;;;;21.95;15.33;;;;;;;19.08;72.82;100098.10;257248;1104;117205;-67
2021/08/14 04:51:52;;;;;;;19.07;16.27;;;;;;;19.38;73.08;100107.86;257222;1104;116622;-67
2021/08/14 04:56:55;;;;;;;24.13;15.63;;;;;;;19.59;72.56;100098.49;255683;1104;115956;-67
2021/08/14 05:01:58;;;;;;;17.35;15.65;;;;;;;19.81;72.54;100098.83;256865;1104;116309;-67
2021/08/14 05:07:04;;;;;;;21.70;16.43;;;;;;;20.11;72.75;100105.80;256580;1104;116004;-67
2021/08/14 05:12:07;;;;;;;18.50;15.80;;;;;;;20.31;72.34;100099.32;257085;1104;115537;-67
2021/08/14 05:17:11;;;;;;;29.55;15.80;;;;;;;20.46;72.04;100091.05;256095;1104;116018;-67
2021/08/14 05:22:16;;;;;;;15.88;14.30;;;;;;;20.69;71.77;100089.36;256013;1104;115456;-67
2021/08/14 05:27:19;;;;;;;19.15;14.20;;;;;;;20.96;71.61;100083.27;255983;1100;119243;-68
2021/08/14 05:32:23;;;;;;;15.83;14.25;;;;;;;21.47;71.32;100090.58;255681;1104;116194;-67
2021/08/14 05:37:26;;;;;;;14.08;12.23;;;;;;;23.21;69.56;100102.20;255209;1104;116385;-68
2021/08/14 05:42:30;;;;;;;15.68;14.08;;;;;;;24.13;68.34;100104.14;255391;1100;116016;-68
2021/08/14 05:47:34;;;;;;;16.03;13.27;;;;;;;24.37;67.04;100098.30;255351;1104;115705;-68
2021/08/14 05:52:37;;;;;;;15.73;14.20;;;;;;;24.82;65.77;100104.26;254168;1104;115482;-68
2021/08/14 05:57:41;;;;;;;14.80;13.43;;;;;;;25.16;65.79;100104.28;255183;1104;115057;-68
2021/08/14 06:02:45;;;;;;;17.20;13.48;;;;;;;25.22;64.82;100104.12;255305;1104;116028;-68
2021/08/14 06:07:50;;;;;;;16.80;15.18;;;;;;;24.99;64.73;100112.48;253792;1098;116078;-67
2021/08/14 06:12:54;;;;;;;14.95;12.68;;;;;;;24.89;64.22;100110.05;254814;1104;116155;-68
2021/08/14 06:17:58;;;;;;;17.13;13.33;;;;;;;24.97;63.86;100120.19;255696;1100;116125;-68
2021/08/14 06:23:02;;;;;;;15.00;13.05;;;;;;;25.00;63.92;100138.64;254330;1099;116130;-67
2021/08/14 06:28:05;;;;;;;14.55;11.65;;;;;;;24.82;62.94;100139.70;254156;1104;115801;-67
2021/08/14 06:33:09;;;;;;;14.33;12.90;;;;;;;24.84;63.14;100132.81;254740;1104;116060;-67
2021/08/14 06:38:12;;;;;;;13.65;12.38;;;;;;;24.98;62.94;100142.81;256839;1104;115595;-67
2021/08/14 06:43:16;;;;;;;14.35;12.85;;;;;;;25.19;63.22;100143.76;255438;1104;115859;-67
2021/08/14 06:48:19;;;;;;;15.75;14.13;;;;;;;25.43;62.81;100145.97;257310;1104;115666;-68
2021/08/14 06:53:21;;;;;;;15.68;12.45;;;;;;;25.58;62.16;100150.94;257105;1104;117787;-67
2021/08/14 06:58:25;;;;;;;17.80;13.55;;;;;;;25.54;61.52;100155.44;256660;1104;115819;-67
2021/08/14 07:03:28;;;;;;;15.13;12.13;;;;;;;25.64;60.94;100146.94;257035;1104;116131;-67
2021/08/14 07:08:32;;;;;;;15.93;12.68;;;;;;;26.33;60.08;100152.14;256265;1099;116806;-67
2021/08/14 07:13:35;;;;;;;12.28;11.13;;;;;;;27.12;59.59;100156.00;257189;1104;116090;-67
2021/08/14 07:18:38;;;;;;;12.28;9.45;;;;;;;27.93;58.48;100147.13;257118;1104;115430;-67
2021/08/14 07:23:42;;;;;;;14.43;12.95;;;;;;;28.30;56.92;100156.20;256003;1104;117380;-68
2021/08/14 07:28:45;;;;;;;13.60;12.20;;;;;;;28.35;56.51;100166.15;256304;1104;116063;-68
2021/08/14 07:33:50;;;;;;;13.60;12.20;;;;;;;28.73;56.54;100168.52;254510;1104;116021;-67
2021/08/14 07:38:54;;;;;;;14.20;12.73;;;;;;;28.64;55.91;100159.61;255285;1104;116705;-67
2021/08/14 07:43:57;;;;;;;14.63;13.20;;;;;;;28.85;55.45;100168.50;255326;1104;116178;-67
2021/08/14 07:49:10;;;;;;;16.68;13.83;;;;;;;29.33;54.83;100169.51;255945;1104;115478;-68
2021/08/14 07:54:13;;;;;;;13.48;12.08;;;;;;;29.63;53.87;100162.52;254043;1104;116014;-68
2021/08/14 07:59:16;;;;;;;16.20;13.65;;;;;;;29.74;53.75;100158.09;253769;1104;115680;-68
2021/08/14 08:04:18;;;;;;;15.53;12.08;;;;;;;29.80;53.27;100166.88;256167;1104;115391;-68
2021/08/14 08:09:22;;;;;;;14.00;12.60;;;;;;;30.10;52.75;100167.27;256053;1104;115662;-67
2021/08/14 08:14:24;;;;;;;12.98;11.50;;;;;;;30.21;52.29;100162.84;254584;1104;117406;-68
2021/08/14 08:19:27;;;;;;;15.30;13.20;;;;;;;30.36;51.76;100164.77;254933;1104;117035;-68
2021/08/14 08:24:30;;;;;;;14.13;9.60;;;;;;;30.44;50.86;100163.78;254206;1104;116404;-67
2021/08/14 08:29:33;;;;;;;14.63;13.18;;;;;;;30.31;51.79;100151.27;255678;1104;116337;-68
2021/08/14 08:34:36;;;;;;;14.85;12.23;;;;;;;30.46;51.37;100161.47;256235;1104;116383;-68
2021/08/14 08:39:39;;;;;;;14.38;11.43;;;;;;;30.46;50.89;100157.92;255300;1104;116991;-68
2021/08/14 08:44:42;;;;;;;12.80;11.55;;;;;;;30.39;50.68;100147.55;257239;1104;117747;-68
2021/08/14 08:49:56;;;;;;;11.30;10.30;;;;;;;30.28;49.69;100151.19;257277;1104;116165;-68
2021/08/14 08:55:02;;;;;;;15.28;12.38;;;;;;;30.22;50.54;100150.69;257273;1104;117063;-68
2021/08/14 09:00:14;;;;;;;13.15;11.88;;;;;;;30.41;49.92;100161.74;257326;1104;137486;-67
2021/08/14 09:05:20;;;;;;;12.38;10.55;;;;;;;30.61;50.21;100168.11;256353;1104;116190;-67
2021/08/14 09:10:26;;;;;;;10.90;9.83;;;;;;;30.66;49.15;100156.03;257202;1100;116008;-68
2021/08/14 09:15:32;;;;;;;14.70;11.45;;;;;;;30.77;48.73;100149.61;257266;1104;115513;-68
2021/08/14 09:20:55;;;;;;;15.63;11.15;;;;;;;30.97;48.88;100155.92;256805;1104;115557;-67
2021/08/14 09:26:03;;;;;;;15.35;10.73;;;;;;;31.01;48.93;100167.81;253735;1104;118437;-67
2021/08/14 09:31:08;;;;;;;14.88;10.55;;;;;;;30.95;48.17;100168.45;254791;1100;116907;-68
2021/08/14 09:36:12;;;;;;;12.78;11.53;;;;;;;30.97;48.26;100169.69;256110;1104;117147;-68
2021/08/14 09:41:22;;;;;;;17.68;13.43;;;;;;;30.95;47.78;100168.45;255315;1098;118193;-68
2021/08/14 09:46:43;;;;;;;14.28;11.08;;;;;;;30.99;47.95;100164.63;254193;1104;117747;-68
2021/08/14 09:51:47;;;;;;;13.63;11.95;;;;;;;31.06;48.03;100175.79;255151;1104;117405;-68
2021/08/14 09:56:51;;;;;;;14.18;12.63;;;;;;;31.16;47.53;100162.64;254308;1104;117049;-69
2021/08/14 10:01:54;;;;;;;14.30;12.80;;;;;;;31.30;47.57;100173.93;255909;1100;116611;-69
2021/08/14 10:06:58;;;;;;;14.25;12.85;;;;;;;31.40;46.99;100163.13;253845;1104;116284;-68
2021/08/14 10:12:01;;;;;;;18.25;13.30;;;;;;;31.49;47.38;100171.17;256833;1104;115735;-69
2021/08/14 10:17:06;;;;;;;15.70;12.83;;;;;;;31.43;46.27;100162.41;253901;1104;115636;-68
2021/08/14 10:22:11;;;;;;;12.40;11.23;;;;;;;31.34;46.08;100163.78;254056;1100;116020;-68
2021/08/14 10:27:16;;;;;;;15.23;12.93;;;;;;;31.39;46.09;100171.75;253718;1104;115142;-68
2021/08/14 10:32:31;;;;;;;15.70;13.43;;;;;;;31.40;46.08;100173.35;253618;1099;115829;-69
2021/08/14 10:37:35;;;;;;;12.73;11.60;;;;;;;31.34;46.48;100163.78;253679;1104;118029;-69
2021/08/14 10:42:53;;;;;;;13.53;11.58;;;;;;;31.39;45.96;100164.29;255842;1105;116522;-69
2021/08/14 10:48:06;;;;;;;14.00;12.58;;;;;;;31.34;45.78;100172.84;253701;1104;115905;-69
2021/08/14 10:53:22;;;;;;;12.93;11.20;;;;;;;31.34;45.63;100161.82;254143;1104;115515;-68
2021/08/14 10:58:36;;;;;;;13.00;11.75;;;;;;;31.31;45.72;100167.27;257071;1104;115915;-69
2021/08/14 11:03:40;;;;;;;15.40;12.83;;;;;;;31.34;45.45;100166.53;257099;1104;117383;-68
2021/08/14 11:08:43;;;;;;;;;;;;;;;31.18;44.91;100160.33;257057;1104;115854;-69
2021/08/14 11:13:47;;;;;;;12.75;11.30;;;;;;;31.12;45.07;100162.56;257938;1104;103007;-69
2021/08/14 11:18:53;;;;;;;14.33;10.30;;;;;;;31.28;44.12;100173.49;257064;1104;118067;-69
2021/08/14 11:23:58;;;;;;;11.70;9.53;;;;;;;30.96;43.83;100165.34;257217;1104;116085;-68
2021/08/14 11:29:02;;;;;;;;;;;;;;;30.96;44.59;100159.03;256598;1104;115718;-69
2021/08/14 11:34:12;;;;;;;9.85;9.03;;;;;;;30.87;44.07;100156.52;256145;1104;103052;-70
2021/08/14 11:39:16;;;;;;;11.05;8.23;;;;;;;30.95;44.64;100155.48;255458;1104;115520;-70
2021/08/14 11:44:20;;;;;;;14.25;9.98;;;;;;;30.88;44.35;100144.31;254436;1104;115752;-70
2021/08/14 11:49:23;;;;;;;10.80;9.25;;;;;;;30.87;44.22;100142.75;254888;1104;116268;-69
2021/08/14 11:54:30;;;;;;;10.67;9.57;;;;;;;30.90;44.62;100135.70;255481;1104;115906;-70
2021/08/14 11:59:34;;;;;;;15.20;9.75;;;;;;;30.87;44.44;100128.98;253638;1104;115507;-69
2021/08/14 12:04:43;;;;;;;9.77;8.77;;;;;;;30.83;44.34;100132.83;253658;1104;115779;-69
2021/08/14 12:09:48;;;;;;;10.53;9.58;;;;;;;30.76;44.41;100137.02;254073;1104;115559;-69
2021/08/14 12:14:52;;;;;;;12.03;9.83;;;;;;;30.75;44.54;100131.87;254150;1104;115912;-69
2021/08/14 12:19:57;;;;;;;14.73;9.78;;;;;;;30.44;44.08;100132.72;254056;1104;115631;-69
2021/08/14 12:25:19;;;;;;;;;;;;;;;30.04;44.51;100138.44;253657;1104;115672;-69
2021/08/14 12:30:24;;;;;;;11.73;8.80;;;;;;;29.66;44.18;100150.80;254478;1104;104845;-69
2021/08/14 12:35:27;;;;;;;8.28;7.55;;;;;;;29.36;44.94;100146.81;255629;1104;137334;-67
2021/08/14 12:40:31;;;;;;;9.45;8.55;;;;;;;29.16;45.69;100138.44;254245;1104;116424;-68
2021/08/14 12:45:38;;;;;;;8.67;7.87;;;;;;;29.22;45.94;100139.00;255201;1104;115571;-68
2021/08/14 12:50:41;;;;;;;8.83;7.85;;;;;;;29.07;46.00;100132.30;256066;1104;116422;-68
2021/08/14 12:55:48;;;;;;;10.05;7.93;;;;;;;29.24;46.34;100124.92;257001;1104;116506;-69
2021/08/14 13:00:53;;;;;;;8.28;7.38;;;;;;;29.49;46.25;100118.18;257163;1104;116977;-69
2021/08/14 13:05:57;;;;;;;8.38;7.58;;;;;;;29.55;46.01;100108.53;257325;1104;116627;-69
2021/08/14 13:11:00;;;;;;;10.18;8.13;;;;;;;29.67;46.52;100111.19;257206;1104;115323;-69
2021/08/14 13:16:03;;;;;;;9.05;8.03;;;;;;;29.70;45.56;100110.48;257199;1104;116875;-69
2021/08/14 13:21:07;;;;;;;10.18;7.45;;;;;;;29.40;45.44;100095.53;257058;1104;116232;-68
2021/08/14 13:26:11;;;;;;;11.73;6.23;;;;;;;29.22;45.31;100105.25;256766;1104;116862;-69
2021/08/14 13:31:14;;;;;;;9.70;7.00;;;;;;;28.99;45.92;100108.56;257122;1104;115473;-70
2021/08/14 13:36:17;;;;;;;7.40;6.68;;;;;;;29.22;45.73;100095.07;257127;1104;114687;-68
2021/08/14 13:41:20;;;;;;;8.07;7.20;;;;;;;29.42;45.37;100094.06;257051;1104;116156;-69
2021/08/14 13:46:23;;;;;;;7.90;7.15;;;;;;;29.16;45.33;100089.03;257141;1104;117168;-69
2021/08/14 13:51:28;;;;;;;8.40;7.55;;;;;;;29.22;45.79;100084.09;256982;1104;116417;-69
2021/08/14 13:56:31;;;;;;;9.60;7.05;;;;;;;29.45;46.17;100076.09;255446;1104;114819;-69
2021/08/14 14:01:34;;;;;;;13.83;7.53;;;;;;;29.46;45.56;100069.44;256055;1104;115366;-68
2021/08/14 14:06:38;;;;;;;7.03;6.33;;;;;;;29.40;44.86;100070.81;253553;1104;115371;-68
2021/08/14 14:11:42;;;;;;;8.45;6.88;;;;;;;29.34;45.39;100064.02;253895;1104;115770;-69
2021/08/14 14:16:45;;;;;;;10.80;7.15;;;;;;;29.26;45.38;100053.98;253563;1104;115653;-69
2021/08/14 14:21:49;;;;;;;6.20;5.60;;;;;;;28.90;45.81;100063.99;254457;1104;115226;-69
2021/08/14 14:26:52;;;;;;;11.98;7.55;;;;;;;28.85;46.45;100055.20;254191;1104;115012;-69
2021/08/14 14:31:57;;;;;;;8.15;6.90;;;;;;;28.76;45.62;100044.34;255370;1104;115430;-68
2021/08/14 14:37:06;;;;;;;8.80;6.80;;;;;;;28.63;45.45;100045.55;255722;1099;115496;-70
2021/08/14 14:42:09;;;;;;;5.60;5.13;;;;;;;28.62;45.08;100039.27;253850;1104;115982;-69
2021/08/14 14:47:11;;;;;;;14.68;6.65;;;;;;;28.62;45.26;100041.20;253544;1104;116291;-70
2021/08/14 14:52:15;;;;;;;8.48;5.98;;;;;;;28.60;45.07;100036.06;253496;1104;115690;-71
2021/08/14 14:57:21;;;;;;;7.75;5.93;;;;;;;28.61;45.26;100026.69;254179;1104;116097;-72
2021/08/14 15:02:24;;;;;;;7.88;5.90;;;;;;;28.52;44.95;100031.52;253686;1104;114588;-75
2021/08/14 15:07:28;;;;;;;8.28;6.20;;;;;;;28.47;44.55;100024.33;255065;1100;115738;-71
2021/08/14 15:12:32;;;;;;;5.90;5.40;;;;;;;28.38;44.76;100023.69;253719;1104;116356;-70
2021/08/14 15:17:35;;;;;;;6.63;6.05;;;;;;;28.28;44.93;100024.16;253649;1104;115880;-71
2021/08/14 15:22:39;;;;;;;6.68;5.48;;;;;;;28.18;44.75;100019.11;253330;1100;116009;-71
2021/08/14 15:27:42;;;;;;;6.13;5.55;;;;;;;28.07;44.48;100020.75;256952;1104;115806;-71
2021/08/14 15:32:45;;;;;;;8.03;6.08;;;;;;;28.04;44.93;100007.73;256969;1104;117490;-72
2021/08/14 15:37:48;;;;;;;6.55;5.88;;;;;;;27.99;44.61;99997.00;257009;1104;115668;-71
2021/08/14 15:42:51;;;;;;;10.60;6.65;;;;;;;27.95;44.74;99993.34;257102;1104;115919;-71
2021/08/14 15:47:55;;;;;;;8.40;6.13;;;;;;;27.90;44.52;99997.12;257320;1104;116498;-71
2021/08/14 15:52:59;;;;;;;8.75;6.13;;;;;;;27.80;44.62;100003.08;257206;1104;115362;-71
2021/08/14 15:58:06;;;;;;;10.13;4.90;;;;;;;27.71;44.50;99994.17;256634;1104;115782;-72
2021/08/14 16:03:09;;;;;;;9.93;6.23;;;;;;;27.55;44.19;99988.53;254350;1100;115544;-71
2021/08/14 16:08:16;;;;;;;7.70;6.05;;;;;;;27.40;44.83;99983.75;253701;1104;115725;-70
2021/08/14 16:13:20;;;;;;;6.83;5.73;;;;;;;27.31;44.71;99991.26;253572;1100;115607;-71
2021/08/14 16:18:22;;;;;;;6.10;5.00;;;;;;;27.23;44.99;99986.67;257130;1104;115428;-71
2021/08/14 16:23:26;;;;;;;5.55;5.05;;;;;;;27.16;45.51;99977.11;253997;1100;116169;-71
2021/08/14 16:28:29;;;;;;;6.35;5.75;;;;;;;27.03;45.76;99967.27;253918;1104;115769;-69
2021/08/14 16:33:33;;;;;;;7.55;4.85;;;;;;;26.89;45.65;99968.70;254043;1104;115449;-70
2021/08/14 16:38:37;;;;;;;8.43;6.28;;;;;;;26.73;45.81;99952.11;256821;1100;116011;-70
2021/08/14 16:43:41;;;;;;;8.88;6.18;;;;;;;26.64;46.94;99959.59;254861;1099;114778;-69
2021/08/14 16:48:44;;;;;;;5.55;4.88;;;;;;;26.50;46.70;99952.50;254835;1104;115586;-70
2021/08/14 16:53:47;;;;;;;6.67;6.03;;;;;;;26.38;46.80;99957.90;255868;1104;115208;-70
2021/08/14 16:58:50;;;;;;;6.95;5.98;;;;;;;26.28;47.02;99954.77;253799;1104;116796;-70
2021/08/14 17:03:52;;;;;;;5.75;5.00;;;;;;;26.13;47.42;99956.15;256091;1104;116166;-69
2021/08/14 17:08:55;;;;;;;9.63;5.80;;;;;;;26.00;48.39;99949.80;256704;1104;115229;-70
2021/08/14 17:14:00;;;;;;;6.83;5.45;;;;;;;25.88;48.23;99951.67;254716;1100;116133;-70
2021/08/14 17:19:03;;;;;;;6.97;6.27;;;;;;;25.70;48.67;99946.30;253523;1104;118547;-70
2021/08/14 17:24:06;;;;;;;9.20;6.13;;;;;;;25.47;49.56;99942.23;253807;1100;115427;-71
2021/08/14 17:29:09;;;;;;;7.65;5.68;;;;;;;25.23;49.85;99940.09;253812;1104;115725;-69
2021/08/14 17:34:12;;;;;;;6.98;5.38;;;;;;;24.96;50.59;99938.59;253447;1104;117219;-69
2021/08/14 17:39:15;;;;;;;5.78;5.28;;;;;;;24.65;51.40;99938.79;256967;1104;117182;-69
2021/08/14 17:44:18;;;;;;;5.48;4.98;;;;;;;24.39;51.70;99936.09;257106;1104;116194;-70
2021/08/14 17:49:23;;;;;;;10.55;6.30;;;;;;;24.15;52.69;99939.25;255893;1104;116932;-70
2021/08/14 17:54:26;;;;;;;6.15;5.55;;;;;;;23.93;53.19;99944.05;257312;1104;115464;-69
2021/08/14 17:59:29;;;;;;;6.40;5.53;;;;;;;23.63;53.46;99945.75;257199;1104;115880;-69
2021/08/14 18:04:35;;;;;;;7.23;5.53;;;;;;;23.37;54.65;99953.80;257052;1104;115702;-68
2021/08/14 18:09:38;;;;;;;5.78;5.18;;;;;;;22.89;55.03;99951.81;254133;1104;115707;-68
2021/08/14 18:14:41;;;;;;;6.73;6.08;;;;;;;22.68;55.79;99958.83;253737;1104;115311;-69
2021/08/14 18:19:45;;;;;;;8.83;6.38;;;;;;;22.48;56.36;99955.50;254538;1104;115163;-69
2021/08/14 18:24:48;;;;;;;6.93;4.95;;;;;;;22.26;56.62;99958.20;254413;1104;115379;-68
2021/08/14 18:29:51;;;;;;;8.77;5.73;;;;;;;22.00;57.12;99954.43;256464;1104;115410;-67
2021/08/14 18:34:54;;;;;;;7.00;5.60;;;;;;;21.55;57.65;99958.89;257211;1104;116116;-68
2021/08/14 18:40:04;;;;;;;9.38;6.58;;;;;;;21.19;58.43;99949.50;256442;1100;115457;-67
2021/08/14 18:45:08;;;;;;;10.35;5.73;;;;;;;20.92;58.71;99945.95;255197;1104;115659;-68
2021/08/14 18:50:12;;;;;;;9.80;5.15;;;;;;;20.67;59.41;99939.86;254414;1104;115484;-68
2021/08/14 18:55:15;;;;;;;8.98;5.75;;;;;;;20.41;59.82;99946.80;254293;1104;115406;-68
2021/08/14 19:00:19;;;;;;;7.73;6.10;;;;;;;20.22;60.15;99937.83;254561;1104;117507;-67
2021/08/14 19:05:23;;;;;;;8.40;6.40;;;;;;;20.16;61.05;99950.66;253975;1104;116090;-67
2021/08/14 19:10:25;;;;;;;8.93;7.38;;;;;;;20.12;61.04;99950.44;254955;1104;116473;-67
2021/08/14 19:15:30;;;;;;;20.80;8.25;;;;;;;19.99;61.37;99953.86;254577;1104;118951;-66
2021/08/14 19:20:36;;;;;;;11.60;7.43;;;;;;;19.77;61.82;99959.83;257035;1104;116465;-68
2021/08/14 19:25:39;;;;;;;20.27;6.33;;;;;;;19.54;61.79;99955.26;257022;1104;116322;-70
2021/08/14 19:30:43;;;;;;;9.68;7.00;;;;;;;19.31;62.27;99959.52;253801;1100;115706;-70
2021/08/14 19:35:46;;;;;;;9.65;7.10;;;;;;;19.17;62.87;99959.41;255094;1104;115809;-66
2021/08/14 19:40:50;;;;;;;11.35;8.25;;;;;;;19.03;63.03;99947.64;256660;1104;116355;-67
2021/08/14 19:45:54;;;;;;;16.30;8.18;;;;;;;18.90;63.60;99947.52;257149;1104;118166;-68
2021/08/14 19:50:57;;;;;;;11.85;7.55;;;;;;;18.74;63.80;99952.23;256012;1100;116600;-67
2021/08/14 19:56:01;;;;;;;14.98;7.43;;;;;;;18.61;64.06;99955.61;255250;1104;117142;-67
2021/08/14 20:01:04;;;;;;;10.08;8.28;;;;;;;18.50;64.36;99949.44;257285;1104;116665;-68
2021/08/14 20:06:07;;;;;;;18.08;8.30;;;;;;;18.50;64.87;99954.83;257297;1104;115508;-67
2021/08/14 20:11:11;;;;;;;19.35;9.43;;;;;;;18.49;64.90;99955.92;257163;1104;115803;-67
2021/08/14 20:16:15;;;;;;;11.85;8.35;;;;;;;18.38;65.10;99947.08;254698;1100;115024;-68
2021/08/14 20:21:18;;;;;;;14.00;9.38;;;;;;;18.27;64.91;99948.26;257038;1104;115339;-67
2021/08/14 20:26:21;;;;;;;11.08;9.58;;;;;;;18.17;65.47;99942.92;255468;1104;115018;-68
2021/08/14 20:31:25;;;;;;;11.55;9.48;;;;;;;18.10;65.74;99940.52;256214;1104;115490;-67
2021/08/14 20:36:29;;;;;;;18.00;9.23;;;;;;;18.07;66.00;99938.38;254962;1104;115781;-67
2021/08/14 20:41:33;;;;;;;14.55;9.15;;;;;;;18.12;66.38;99940.25;254529;1104;116618;-68
2021/08/14 20:46:37;;;;;;;13.18;7.93;;;;;;;17.97;66.30;99935.77;256388;1104;116561;-67
2021/08/14 20:51:41;;;;;;;10.73;8.88;;;;;;;17.78;66.39;99921.28;254722;1104;116179;-67
2021/08/14 20:56:44;;;;;;;14.88;8.00;;;;;;;17.60;66.84;99928.09;256172;1104;117460;-68
2021/08/14 21:01:48;;;;;;;17.38;10.18;;;;;;;17.58;67.32;99924.05;257029;1105;116065;-68
2021/08/14 21:06:51;;;;;;;15.13;10.80;;;;;;;17.56;67.25;99924.33;254035;1104;117095;-67
2021/08/14 21:11:55;;;;;;;22.08;11.50;;;;;;;17.47;67.55;99920.58;256280;1100;117285;-68
2021/08/14 21:16:59;;;;;;;14.55;10.40;;;;;;;17.47;67.96;99923.28;254616;1104;116421;-67
2021/08/14 21:22:04;;;;;;;16.35;10.33;;;;;;;17.43;67.81;99916.82;255025;1104;115674;-66
2021/08/14 21:27:07;;;;;;;10.50;9.40;;;;;;;17.35;67.55;99918.22;255741;1104;115458;-66
2021/08/14 21:32:10;;;;;;;11.60;9.83;;;;;;;17.26;68.00;99908.27;257078;1104;117435;-66
2021/08/14 21:37:13;;;;;;;15.40;11.00;;;;;;;17.17;68.16;99908.83;256312;1104;115108;-66
2021/08/14 21:42:18;;;;;;;23.88;12.90;;;;;;;17.05;68.23;99902.95;256888;1104;115451;-67
2021/08/14 21:47:22;;;;;;;24.50;15.58;;;;;;;16.97;68.47;99900.81;257078;1104;116422;-69
2021/08/14 21:52:26;;;;;;;20.13;11.08;;;;;;;16.92;68.97;99891.92;256724;1104;115503;-69
2021/08/14 21:57:29;;;;;;;17.08;12.95;;;;;;;16.87;69.23;99884.66;257096;1104;115499;-69
2021/08/14 22:02:32;;;;;;;22.88;12.28;;;;;;;16.91;69.23;99893.81;257102;1104;117125;-70
2021/08/14 22:07:35;;;;;;;17.20;12.50;;;;;;;16.94;69.11;99890.58;257246;1104;115488;-69
2021/08/14 22:12:38;;;;;;;15.03;11.50;;;;;;;16.88;68.98;99883.58;256968;1104;117589;-68
2021/08/14 22:17:41;;;;;;;18.05;12.68;;;;;;;16.80;69.27;99882.27;256823;1104;116515;-69
2021/08/14 22:22:46;;;;;;;17.88;13.10;;;;;;;16.81;69.52;99875.00;254829;1104;116499;-66
2021/08/14 22:27:50;;;;;;;16.88;11.33;;;;;;;16.82;69.54;99872.01;255566;1104;115076;-66
2021/08/14 22:32:54;;;;;;;14.30;12.80;;;;;;;16.72;69.48;99874.74;255868;1104;115783;-66
2021/08/14 22:38:06;;;;;;;18.90;14.18;;;;;;;16.61;69.67;99883.86;253969;1104;116255;-66
2021/08/14 22:43:12;;;;;;;22.58;12.30;;;;;;;16.61;69.99;99885.75;254030;1104;116025;-66
2021/08/14 22:48:16;;;;;;;19.05;14.65;;;;;;;16.57;69.93;99873.91;254825;1104;115691;-65